Time;durP1;ratioP1;P1;durP2;ratioP2;P2;SDS_P1;SDS_P2;PMS_P1;PMS_P2;Temp;Humidity;BMP_temperature;BMP_pressure;BME280_temperature;BME280_humidity;BME280_pressure;Samples;Min_cycle;Max_cycle;Signal;HPM_P1;HPM_P2
2022/05/20 00:01:08;;;;;;;8.73;4.30;;;;;;;16.52;37.62;100179.47;4246887;28;20262;-76
2022/05/20 00:03:36;;;;;;;10.47;3.60;;;;;;;16.54;37.25;100172.06;4229587;28;20344;-74
2022/05/20 00:06:03;;;;;;;10.87;3.70;;;;;;;16.43;37.39;100168.84;4246150;28;20230;-74
2022/05/20 00:08:29;;;;;;;13.20;4.17;;;;;;;16.42;37.59;100161.81;4231211;28;22177;-74
2022/05/20 00:10:56;;;;;;;14.00;5.57;;;;;;;16.48;38.00;100159.38;4242316;28;20321;-78
2022/05/20 00:13:27;;;;;;;14.23;4.30;;;;;;;16.44;37.84;100161.63;4234664;28;21771;-76
2022/05/20 00:15:54;;;;;;;7.83;3.70;;;;;;;16.34;37.76;100163.78;4230742;28;21909;-73
2022/05/20 00:18:21;;;;;;;11.07;4.00;;;;;;;16.25;38.15;100169.28;4235949;28;20230;-73
2022/05/20 00:20:48;;;;;;;11.70;4.13;;;;;;;16.30;38.31;100171.41;4227139;28;20231;-77
2022/05/20 00:23:14;;;;;;;12.60;4.23;;;;;;;16.30;38.16;100167.88;4239386;28;22972;-75
2022/05/20 00:25:46;;;;;;;11.03;4.13;;;;;;;16.24;38.43;100166.75;4225252;28;21660;-76
2022/05/20 00:28:19;;;;;;;12.77;4.07;;;;;;;16.13;38.61;100164.56;4232837;28;23310;-76
2022/05/20 00:30:48;;;;;;;13.13;4.10;;;;;;;16.20;38.64;100160.09;4239840;28;20226;-75
2022/05/20 00:33:15;;;;;;;9.73;4.20;;;;;;;16.06;39.67;100148.41;4243208;28;20238;-75
2022/05/20 00:35:41;;;;;;;11.27;3.60;;;;;;;15.78;40.11;100158.94;4238175;28;20239;-76
2022/05/20 00:38:08;;;;;;;7.83;4.07;;;;;;;15.90;39.64;100162.03;4232345;28;20238;-73
2022/05/20 00:40:35;;;;;;;10.00;4.00;;;;;;;15.94;39.46;100153.38;4224558;28;21162;-74
2022/05/20 00:43:08;;;;;;;15.93;4.43;;;;;;;15.94;39.50;100150.69;4246585;28;20409;-73
2022/05/20 00:45:35;;;;;;;10.17;4.27;;;;;;;15.85;39.70;100159.91;4244557;28;20800;-72
2022/05/20 00:48:01;;;;;;;9.93;4.57;;;;;;;15.83;39.88;100159.25;4260653;28;20239;-72
2022/05/20 00:50:28;;;;;;;12.03;4.27;;;;;;;15.76;40.17;100152.97;4244437;28;26111;-72
2022/05/20 00:52:58;;;;;;;12.13;4.40;;;;;;;15.71;40.64;100150.84;4240435;28;20358;-73
2022/05/20 00:55:25;;;;;;;9.67;3.80;;;;;;;15.80;40.04;100151.56;4245993;28;20230;-74
2022/05/20 00:58:04;;;;;;;12.03;3.97;;;;;;;15.77;39.91;100144.72;4245753;28;20226;-72
2022/05/20 01:00:37;;;;;;;11.77;4.40;;;;;;;15.76;39.62;100142.22;4237589;28;20336;-73
2022/05/20 01:03:06;;;;;;;12.90;3.90;;;;;;;15.72;40.04;100139.06;4244987;28;22548;-73
2022/05/20 01:05:42;;;;;;;14.10;4.57;;;;;;;15.58;40.91;100135.34;4222159;28;20227;-76
2022/05/20 01:08:12;;;;;;;12.00;3.63;;;;;;;15.60;40.32;100132.47;4231757;28;20255;-74
2022/05/20 01:10:39;;;;;;;10.43;3.97;;;;;;;15.60;40.43;100137.84;4249163;28;20227;-74
2022/05/20 01:13:05;;;;;;;13.90;4.20;;;;;;;15.59;40.88;100137.03;4243701;28;20258;-75
2022/05/20 01:15:32;;;;;;;11.00;4.40;;;;;;;15.68;40.37;100129.69;4245157;28;21436;-73
2022/05/20 01:17:58;;;;;;;12.23;3.90;;;;;;;15.64;40.67;100133.78;4282449;28;21563;-73
2022/05/20 01:20:28;;;;;;;8.27;3.63;;;;;;;15.67;40.62;100130.72;4271335;28;20223;-75
2022/05/20 01:23:05;;;;;;;10.70;3.90;;;;;;;15.67;40.68;100127.22;4245508;28;20234;-75
2022/05/20 01:25:32;;;;;;;12.77;4.50;;;;;;;15.60;40.77;100132.47;4240319;28;20609;-74
2022/05/20 01:27:59;;;;;;;11.20;4.47;;;;;;;15.56;41.50;100126.66;4243355;28;20239;-74
2022/05/20 01:30:28;;;;;;;11.20;3.87;;;;;;;15.58;40.97;100121.94;4241784;28;20236;-73
2022/05/20 01:32:54;;;;;;;8.73;3.70;;;;;;;15.57;41.13;100128.31;4244647;28;21208;-74
2022/05/20 01:35:35;;;;;;;15.13;3.90;;;;;;;15.55;41.13;100118.81;4226917;28;20285;-74
2022/05/20 01:38:03;;;;;;;11.60;3.73;;;;;;;15.58;40.86;100119.25;4237089;28;20337;-74
2022/05/20 01:40:39;;;;;;;9.30;4.43;;;;;;;15.52;41.40;100122.69;4240239;28;20239;-74
2022/05/20 01:43:12;;;;;;;12.23;3.73;;;;;;;15.48;41.42;100117.88;4225409;28;22213;-76
2022/05/20 01:45:45;;;;;;;8.97;4.07;;;;;;;15.41;41.55;100115.09;4248214;28;20231;-75
2022/05/20 01:48:30;;;;;;;10.70;4.27;;;;;;;15.36;42.31;100109.47;4242818;28;20234;-73
2022/05/20 01:50:57;;;;;;;13.10;4.57;;;;;;;15.30;42.43;100102.16;4240591;28;20239;-76
2022/05/20 01:53:46;;;;;;;10.03;4.10;;;;;;;15.31;41.90;100101.97;4242086;28;20302;-73
2022/05/20 01:56:15;;;;;;;8.37;3.77;;;;;;;15.18;42.42;100096.41;4237916;28;20329;-74
2022/05/20 01:58:50;;;;;;;13.87;3.93;;;;;;;15.00;42.73;100091.38;4239267;28;20242;-74
2022/05/20 02:01:37;;;;;;;9.77;4.27;;;;;;;14.89;43.56;100089.13;4234517;28;21980;-75
2022/05/20 02:04:10;;;;;;;11.47;3.60;;;;;;;14.95;43.61;100083.06;4246500;28;20244;-75
2022/05/20 02:06:39;;;;;;;10.77;3.83;;;;;;;14.92;43.32;100080.75;4223993;28;20607;-73
2022/05/20 02:09:13;;;;;;;12.30;3.80;;;;;;;14.92;43.56;100088.78;4223209;28;22430;-75
2022/05/20 02:11:48;;;;;;;13.03;3.87;;;;;;;15.01;43.50;100087.69;4228106;28;21775;-74
2022/05/20 02:14:23;;;;;;;8.13;3.80;;;;;;;15.02;43.42;100086.66;4231825;28;20241;-76
2022/05/20 02:17:10;;;;;;;11.57;4.20;;;;;;;14.84;43.98;100083.50;4233449;28;22675;-74
2022/05/20 02:19:40;;;;;;;7.93;3.53;;;;;;;14.83;44.10;100084.53;4229211;28;23175;-74
2022/05/20 02:22:11;;;;;;;11.83;3.90;;;;;;;14.82;44.50;100085.50;4244633;28;21771;-75
2022/05/20 02:24:40;;;;;;;8.07;3.30;;;;;;;14.92;43.92;100086.13;4241509;28;20382;-74
2022/05/20 02:27:09;;;;;;;13.30;3.87;;;;;;;14.90;44.09;100094.31;4229467;28;20256;-74
2022/05/20 02:29:45;;;;;;;12.30;4.10;;;;;;;14.90;44.27;100096.19;4224066;28;21723;-75
2022/05/20 02:32:19;;;;;;;10.97;3.57;;;;;;;14.98;44.41;100086.22;4236078;28;20235;-75
2022/05/20 02:34:45;;;;;;;10.50;4.20;;;;;;;14.99;44.20;100097.75;4232374;28;21443;-74
2022/05/20 02:37:19;;;;;;;11.13;4.23;;;;;;;14.98;44.25;100096.09;4240104;28;20316;-75
2022/05/20 02:39:46;;;;;;;10.23;3.83;;;;;;;14.94;44.51;100086.75;4239582;28;20243;-75
2022/05/20 02:42:12;;;;;;;14.90;4.47;;;;;;;14.90;44.74;100088.97;4240287;28;26191;-75
2022/05/20 02:44:39;;;;;;;14.07;3.90;;;;;;;14.88;44.94;100087.47;4241572;28;20235;-74
2022/05/20 02:47:06;;;;;;;15.83;4.07;;;;;;;14.86;45.08;100086.81;4236709;28;20308;-75
2022/05/20 02:49:32;;;;;;;12.77;3.97;;;;;;;14.84;44.82;100078.97;4239164;28;22861;-74
2022/05/20 02:51:59;;;;;;;18.00;4.90;;;;;;;14.78;44.80;100074.34;4224755;28;20234;-74
2022/05/20 02:54:25;;;;;;;13.97;4.37;;;;;;;14.57;45.75;100075.03;4246329;28;25121;-76
2022/05/20 02:56:52;;;;;;;14.03;5.13;;;;;;;14.46;46.29;100075.41;4266104;28;21250;-74
2022/05/20 03:04:49;;;;;;;13.13;3.93;;;;;;;14.71;45.78;100071.56;4254359;28;22598;-75
2022/05/20 03:07:16;;;;;;;17.10;3.57;;;;;;;14.69;45.74;100075.44;4253837;28;21592;-78
2022/05/20 03:09:43;;;;;;;13.00;4.13;;;;;;;14.68;45.83;100053.19;4267396;28;20282;-76
2022/05/20 03:12:11;;;;;;;11.33;3.77;;;;;;;14.74;45.17;100063.16;4267014;28;21722;-73
2022/05/20 03:14:38;;;;;;;11.93;3.80;;;;;;;14.58;45.73;100055.25;4264384;28;21708;-74
2022/05/20 03:17:05;;;;;;;11.13;3.90;;;;;;;14.64;45.83;100049.19;4253509;28;20272;-75
2022/05/20 03:19:37;;;;;;;10.00;4.27;;;;;;;14.48;46.63;100057.31;4280872;28;20357;-76
2022/05/20 03:22:05;;;;;;;10.40;3.27;;;;;;;14.52;46.25;100054.13;4249142;28;20222;-74
2022/05/20 03:24:35;;;;;;;9.63;3.90;;;;;;;14.54;46.60;100054.81;4253736;28;20299;-76
2022/05/20 03:27:03;;;;;;;16.67;4.27;;;;;;;14.64;46.22;100054.53;4255081;28;23555;-75
2022/05/20 03:29:32;;;;;;;9.90;4.10;;;;;;;14.59;46.60;100048.06;4246266;28;20226;-75
2022/05/20 03:31:59;;;;;;;15.03;3.93;;;;;;;14.68;46.05;100050.50;4232253;28;21583;-74
2022/05/20 03:34:25;;;;;;;12.23;3.97;;;;;;;14.71;45.89;100060.84;4240128;28;20234;-74
2022/05/20 03:36:52;;;;;;;12.33;3.93;;;;;;;14.67;45.95;100054.19;4253052;28;20222;-73
2022/05/20 03:39:20;;;;;;;24.93;4.57;;;;;;;14.72;46.01;100051.78;4248397;28;21526;-74
2022/05/20 03:41:47;;;;;;;10.90;3.40;;;;;;;14.67;45.79;100043.47;4243011;28;20245;-73
2022/05/20 03:44:16;;;;;;;14.40;3.60;;;;;;;14.67;45.99;100031.94;4240877;28;20247;-76
2022/05/20 03:46:47;;;;;;;13.67;3.70;;;;;;;14.66;46.32;100038.31;4247957;28;21775;-74
2022/05/20 03:49:15;;;;;;;20.33;4.07;;;;;;;14.77;46.05;100046.75;4231473;28;20242;-73
2022/05/20 03:51:43;;;;;;;20.17;4.07;;;;;;;14.76;45.89;100045.06;4250667;28;20229;-72
2022/05/20 03:54:09;;;;;;;12.73;3.40;;;;;;;14.84;45.94;100044.13;4248879;28;20681;-74
2022/05/20 03:56:36;;;;;;;19.87;4.07;;;;;;;14.95;45.78;100045.53;4246709;28;20235;-74
2022/05/20 03:59:03;;;;;;;12.17;3.87;;;;;;;14.94;45.61;100041.22;4247591;28;20304;-77
2022/05/20 04:04:15;;;;;;;12.93;3.50;;;;;;;14.91;45.65;100044.25;4253544;28;20310;-73
2022/05/20 04:06:41;;;;;;;20.63;3.70;;;;;;;14.96;45.18;100039.16;4240080;28;25967;-78
2022/05/20 04:09:08;;;;;;;11.53;3.77;;;;;;;14.81;45.90;100041.00;4235436;28;20301;-73
2022/05/20 04:11:35;;;;;;;12.93;3.67;;;;;;;14.83;45.71;100044.34;4250674;28;20235;-75
2022/05/20 04:14:02;;;;;;;17.93;3.63;;;;;;;14.92;45.43;100043.25;4249984;28;20239;-74
2022/05/20 04:16:29;;;;;;;17.03;3.87;;;;;;;15.01;45.49;100047.50;4243418;28;20376;-75
2022/05/20 04:18:55;;;;;;;13.10;3.43;;;;;;;15.09;45.14;100044.72;4244827;28;21047;-74
2022/05/20 04:21:22;;;;;;;16.73;3.73;;;;;;;15.20;44.55;100046.13;4258724;28;20996;-75
2022/05/20 04:23:50;;;;;;;14.27;3.33;;;;;;;15.34;44.97;100047.97;4238252;28;24783;-77
2022/05/20 04:26:16;;;;;;;14.97;3.10;;;;;;;15.44;43.76;100049.53;4238356;28;21062;-74
2022/05/20 04:28:43;;;;;;;19.43;3.17;;;;;;;15.53;43.39;100049.25;4244040;28;20611;-74
2022/05/20 04:31:11;;;;;;;24.67;4.00;;;;;;;15.52;43.72;100041.38;4245423;28;20287;-74
2022/05/20 04:33:39;;;;;;;17.60;3.67;;;;;;;15.40;43.59;100031.16;4237811;28;20237;-75
2022/05/20 04:36:06;;;;;;;13.57;3.03;;;;;;;15.50;43.72;100035.38;4229826;28;20289;-75
2022/05/20 04:38:33;;;;;;;16.50;3.43;;;;;;;15.59;43.20;100034.25;4254686;28;20253;-76
2022/05/20 04:49:15;;;;;;;18.97;2.90;;;;;;;16.16;41.68;100016.56;4244399;28;20244;-77
2022/05/20 04:51:41;;;;;;;28.63;3.10;;;;;;;16.21;41.50;100016.81;4238182;28;20242;-74
2022/05/20 04:56:54;;;;;;;8.83;3.10;;;;;;;16.64;40.68;100028.31;4247230;28;20769;-74
2022/05/20 04:59:22;;;;;;;15.10;2.90;;;;;;;16.83;40.52;100026.88;4230766;28;20242;-76
2022/05/20 05:01:51;;;;;;;9.70;3.00;;;;;;;17.04;40.53;100033.19;4245846;28;21282;-74
2022/05/20 05:04:18;;;;;;;13.10;2.80;;;;;;;17.24;40.35;100030.63;4245067;28;20298;-72
2022/05/20 05:06:46;;;;;;;9.80;3.30;;;;;;;17.38;39.92;100028.84;4233281;28;20227;-68
2022/05/20 05:09:13;;;;;;;16.83;3.50;;;;;;;17.36;39.97;100036.28;4243001;28;21196;-64
2022/05/20 05:11:40;;;;;;;17.03;3.00;;;;;;;17.40;40.56;100038.38;4244244;28;20223;-67
2022/05/20 05:14:08;;;;;;;10.87;2.90;;;;;;;17.69;39.96;100033.72;4236455;28;20359;-69
2022/05/20 05:16:35;;;;;;;27.83;3.30;;;;;;;17.76;40.13;100036.44;4250938;28;20291;-71
2022/05/20 05:19:02;;;;;;;9.87;2.37;;;;;;;17.85;39.21;100038.78;4238436;28;20279;-68
2022/05/20 05:21:29;;;;;;;9.97;2.30;;;;;;;17.75;38.76;100048.22;4241436;28;20229;-69
2022/05/20 05:23:56;;;;;;;12.37;3.90;;;;;;;17.48;39.31;100046.25;4237008;28;21661;-68
2022/05/20 05:26:23;;;;;;;8.23;2.30;;;;;;;17.56;39.13;100052.50;4242542;28;20296;-69
2022/05/20 05:28:49;;;;;;;9.87;2.37;;;;;;;17.81;39.26;100060.94;4240422;28;22404;-70
2022/05/20 05:31:21;;;;;;;6.77;2.03;;;;;;;17.83;39.06;100059.69;4251672;28;22014;-70
2022/05/20 05:33:49;;;;;;;5.77;1.70;;;;;;;18.04;38.94;100061.41;4253052;28;20237;-71
2022/05/20 05:36:17;;;;;;;17.00;2.40;;;;;;;18.10;39.01;100066.00;4236210;28;20247;-72
2022/05/20 05:38:44;;;;;;;15.97;2.40;;;;;;;18.34;38.22;100059.19;4245203;28;20305;-71
2022/05/20 05:41:12;;;;;;;13.13;2.37;;;;;;;18.52;37.83;100058.59;4246558;28;20235;-73
2022/05/20 05:43:39;;;;;;;13.70;2.30;;;;;;;18.75;37.36;100055.50;4234679;28;21985;-72
2022/05/20 05:46:05;;;;;;;5.93;2.20;;;;;;;19.27;36.84;100055.69;4238099;28;20230;-73
2022/05/20 05:48:32;;;;;;;10.73;2.83;;;;;;;19.67;34.69;100054.72;4259775;28;21795;-75
2022/05/20 05:50:59;;;;;;;9.87;2.60;;;;;;;19.63;35.70;100059.69;4246260;28;20233;-72
2022/05/20 05:53:26;;;;;;;17.30;2.73;;;;;;;19.57;35.62;100066.78;4244447;28;20250;-73
2022/05/20 05:55:58;;;;;;;7.43;1.93;;;;;;;19.14;35.79;100063.78;4247706;28;20311;-78
2022/05/20 05:58:27;;;;;;;10.23;2.03;;;;;;;18.69;36.68;100064.41;4250929;28;20238;-71
2022/05/20 06:00:54;;;;;;;14.73;2.20;;;;;;;18.49;37.50;100059.00;4246481;28;20297;-70
2022/05/20 06:03:22;;;;;;;7.60;2.20;;;;;;;18.65;37.41;100063.16;4240834;28;20230;-75
2022/05/20 06:05:48;;;;;;;10.10;1.87;;;;;;;19.20;36.55;100054.84;4231386;28;20282;-71
2022/05/20 06:08:16;;;;;;;9.33;2.47;;;;;;;20.26;34.61;100071.69;4241374;28;20231;-75
2022/05/20 06:10:43;;;;;;;10.00;2.07;;;;;;;21.03;32.81;100081.31;4257909;28;20227;-76
2022/05/20 06:13:11;;;;;;;10.53;1.90;;;;;;;21.81;31.74;100069.03;4234643;28;21801;-68
2022/05/20 06:15:38;;;;;;;7.73;2.27;;;;;;;22.44;30.48;100070.47;4273214;28;20432;-72
2022/05/20 06:18:06;;;;;;;10.33;2.33;;;;;;;22.09;30.38;100062.19;4255802;28;20231;-71
2022/05/20 06:20:33;;;;;;;11.50;2.20;;;;;;;21.85;30.86;100062.09;4252074;28;20239;-71
2022/05/20 06:23:01;;;;;;;6.70;1.93;;;;;;;21.97;31.31;100058.63;4265051;28;20226;-71
2022/05/20 06:25:29;;;;;;;7.40;2.50;;;;;;;21.95;31.71;100058.03;4246377;28;20232;-70
2022/05/20 06:28:06;;;;;;;10.60;2.30;;;;;;;20.89;32.94;100050.03;4252330;28;20332;-73
2022/05/20 06:30:33;;;;;;;13.67;2.00;;;;;;;20.84;33.58;100044.44;4244282;28;20245;-74
2022/05/20 06:33:01;;;;;;;8.37;2.40;;;;;;;20.66;34.20;100037.94;4258123;28;20234;-71
2022/05/20 06:40:59;;;;;;;8.13;1.97;;;;;;;19.96;36.68;100031.75;4255998;28;20403;-70
2022/05/20 06:43:26;;;;;;;8.20;1.83;;;;;;;19.78;36.92;100037.84;4251207;28;20260;-70
2022/05/20 06:45:56;;;;;;;13.87;2.10;;;;;;;19.68;37.41;100038.31;4237640;28;22294;-70
2022/05/20 06:48:47;;;;;;;13.83;2.33;;;;;;;19.81;37.13;100034.75;4257591;28;22848;-71
2022/05/20 06:51:17;;;;;;;13.33;2.37;;;;;;;19.80;37.55;100036.59;4246116;28;20294;-70
2022/05/20 06:53:44;;;;;;;7.70;2.07;;;;;;;19.70;37.89;100035.41;4249471;28;21726;-69
2022/05/20 06:56:12;;;;;;;15.23;2.30;;;;;;;19.60;37.65;100042.06;4259515;28;20233;-70
2022/05/20 06:58:40;;;;;;;13.17;2.30;;;;;;;19.66;37.98;100034.16;4239350;28;21260;-71
2022/05/20 07:01:07;;;;;;;11.00;2.20;;;;;;;19.69;38.53;100042.69;4251027;28;20231;-73
2022/05/20 07:03:34;;;;;;;9.07;2.10;;;;;;;19.74;38.56;100039.34;4250658;28;20849;-70
2022/05/20 07:06:04;;;;;;;8.40;2.17;;;;;;;19.74;38.57;100044.75;4256016;28;21321;-74
2022/05/20 07:08:33;;;;;;;6.77;2.10;;;;;;;20.29;37.67;100041.53;4255017;28;21477;-72
2022/05/20 07:11:05;;;;;;;13.20;2.30;;;;;;;20.70;36.77;100042.88;4264389;28;21183;-70
2022/05/20 07:13:39;;;;;;;10.00;2.23;;;;;;;21.28;35.21;100043.38;4271204;28;22831;-69
2022/05/20 07:16:07;;;;;;;8.33;2.30;;;;;;;21.42;35.24;100051.38;4285415;28;20911;-69
2022/05/20 07:18:34;;;;;;;10.60;2.27;;;;;;;21.86;35.10;100054.78;4269329;28;20235;-69
2022/05/20 07:21:02;;;;;;;7.07;2.40;;;;;;;21.74;35.51;100043.91;4259224;28;21216;-69
2022/05/20 07:23:31;;;;;;;7.93;2.13;;;;;;;21.73;35.30;100052.25;4266025;28;22443;-68
2022/05/20 07:26:01;;;;;;;11.83;2.27;;;;;;;22.02;34.20;100061.47;4256149;28;20234;-69
2022/05/20 07:28:30;;;;;;;19.07;2.23;;;;;;;21.97;34.67;100055.91;4244142;28;20314;-69
2022/05/20 07:30:57;;;;;;;4.43;1.97;;;;;;;21.75;35.04;100051.00;4261740;28;20227;-70
2022/05/20 07:33:24;;;;;;;9.20;2.53;;;;;;;21.42;36.24;100045.94;4240263;28;20239;-70
2022/05/20 07:35:51;;;;;;;10.57;2.80;;;;;;;21.44;36.30;100050.09;4234051;28;20295;-69
2022/05/20 07:38:18;;;;;;;13.83;2.83;;;;;;;21.32;36.91;100046.44;4238430;28;20274;-70
2022/05/20 07:40:45;;;;;;;9.57;2.50;;;;;;;21.32;37.07;100048.34;4242129;28;20360;-69
2022/05/20 07:43:12;;;;;;;12.47;2.57;;;;;;;21.50;37.50;100051.91;4248278;28;20321;-72
2022/05/20 07:45:40;;;;;;;12.53;2.43;;;;;;;21.37;37.31;100056.59;4266046;28;21722;-70
2022/05/20 07:48:06;;;;;;;6.53;2.47;;;;;;;21.39;36.94;100047.19;4240728;28;20231;-70
2022/05/20 07:50:45;;;;;;;9.90;2.40;;;;;;;21.15;37.40;100046.22;4250234;28;20321;-69
2022/05/20 07:53:20;;;;;;;7.40;2.27;;;;;;;21.42;37.33;100041.38;4282783;28;20965;-70
2022/05/20 07:55:57;;;;;;;11.53;2.50;;;;;;;21.68;37.22;100042.09;4259445;28;22423;-68
2022/05/20 07:58:29;;;;;;;16.37;2.43;;;;;;;21.98;37.16;100044.81;4252665;28;20675;-70
2022/05/20 08:01:20;;;;;;;13.90;2.70;;;;;;;22.05;36.91;100034.72;4285938;28;20377;-69
2022/05/20 08:06:34;;;;;;;9.30;2.70;;;;;;;22.54;35.56;100038.19;4280698;28;20235;-70
2022/05/20 08:09:01;;;;;;;12.30;2.60;;;;;;;22.42;36.63;100039.22;4261462;28;21425;-70
2022/05/20 08:11:28;;;;;;;9.90;2.53;;;;;;;22.68;35.54;100038.78;4260327;28;20231;-72
2022/05/20 08:13:55;;;;;;;13.20;2.67;;;;;;;22.70;36.21;100033.94;4269619;28;20308;-62
2022/05/20 08:16:22;;;;;;;11.00;2.87;;;;;;;23.13;35.78;100030.09;4276469;28;20247;-63
2022/05/20 08:18:49;;;;;;;11.20;2.92;;;;;;;23.53;34.75;100032.03;4257361;28;20684;-71
2022/05/20 08:21:16;;;;;;;9.43;2.40;;;;;;;23.50;34.17;100027.06;4253666;28;20237;-71
2022/05/20 08:23:44;;;;;;;10.57;2.70;;;;;;;23.59;34.59;100030.22;4260304;28;21843;-71
2022/05/20 08:26:11;;;;;;;16.13;2.63;;;;;;;24.20;34.09;100038.75;4259648;28;20233;-64
2022/05/20 08:28:37;;;;;;;28.35;3.60;;;;;;;24.39;32.40;100032.03;4267047;28;20237;-65
2022/05/20 08:31:04;;;;;;;10.02;2.95;;;;;;;24.67;31.63;100029.50;4243252;28;22761;-71
2022/05/20 08:33:34;;;;;;;8.60;3.38;;;;;;;24.67;31.73;100032.22;4262535;28;20318;-75
2022/05/20 08:36:03;;;;;;;15.68;2.92;;;;;;;24.46;33.55;100026.41;4232570;28;20231;-74
2022/05/20 08:38:30;;;;;;;13.20;3.05;;;;;;;24.68;32.14;100032.00;4233941;28;20231;-72
2022/05/20 08:40:58;;;;;;;14.90;3.00;;;;;;;24.82;31.69;100032.47;4248980;28;22016;-75
2022/05/20 08:43:29;;;;;;;7.82;2.60;;;;;;;24.23;33.31;100019.22;4246796;28;20290;-72
2022/05/20 08:45:56;;;;;;;10.07;2.40;;;;;;;24.22;33.53;100017.59;4232851;28;20223;-71
2022/05/20 08:48:23;;;;;;;10.27;2.88;;;;;;;24.79;32.66;100014.72;4262280;28;20308;-65
2022/05/20 08:50:52;;;;;;;5.25;2.58;;;;;;;24.97;32.84;100016.34;4250911;28;20958;-75
2022/05/20 08:53:42;;;;;;;10.03;2.60;;;;;;;25.13;32.13;100003.78;4236155;28;20702;-61
2022/05/20 08:56:12;;;;;;;11.50;2.95;;;;;;;24.90;32.70;100012.19;4255035;28;20241;-71
2022/05/20 08:59:00;;;;;;;13.25;4.00;;;;;;;24.51;33.46;100004.78;4254198;28;22772;-70
2022/05/20 09:01:33;;;;;;;10.18;3.28;;;;;;;24.70;32.50;99997.19;4317285;28;20230;-69
2022/05/20 09:04:01;;;;;;;14.20;3.05;;;;;;;24.33;33.29;100005.81;4256384;28;20251;-71
2022/05/20 09:06:28;;;;;;;7.55;3.00;;;;;;;24.28;33.24;100000.31;4276358;28;20232;-71
2022/05/20 09:09:06;;;;;;;15.85;4.18;;;;;;;24.20;33.66;99997.97;4264165;28;20238;-71
2022/05/20 09:11:33;;;;;;;12.67;3.20;;;;;;;24.11;33.88;99996.72;4277280;28;20239;-70
2022/05/20 09:17:14;;;;;;;12.77;3.00;;;;;;;24.49;33.02;99997.94;4258843;28;20707;-70
2022/05/20 09:19:57;;;;;;;8.40;2.90;;;;;;;24.63;33.07;99994.66;4262974;28;20230;-71
2022/05/20 09:22:27;;;;;;;10.48;2.92;;;;;;;24.83;33.35;99999.56;4241164;28;20297;-72
2022/05/20 09:24:54;;;;;;;11.30;3.00;;;;;;;24.89;33.60;99996.91;4258464;28;20566;-69
2022/05/20 09:27:29;;;;;;;13.65;3.10;;;;;;;24.94;32.61;100005.16;4264715;28;21190;-73
2022/05/20 09:30:06;;;;;;;15.48;3.90;;;;;;;25.09;33.03;99997.19;4252020;28;20789;-71
2022/05/20 09:32:43;;;;;;;22.63;3.40;;;;;;;25.28;32.95;99995.84;4275652;28;20234;-75
2022/05/20 09:35:18;;;;;;;8.45;2.88;;;;;;;25.40;32.65;100001.19;4267786;28;20288;-76
2022/05/20 09:37:47;;;;;;;8.75;2.70;;;;;;;25.48;31.42;100005.34;4260630;28;20293;-70
2022/05/20 09:40:26;;;;;;;6.85;3.13;;;;;;;25.62;32.16;100003.88;4266748;28;20239;-72
2022/05/20 09:43:36;;;;;;;11.38;3.45;;;;;;;25.68;31.43;99996.56;4267425;28;20691;-74
2022/05/20 09:46:04;;;;;;;12.60;3.13;;;;;;;25.17;31.29;99998.66;4240586;28;25418;-70
2022/05/20 09:48:38;;;;;;;12.82;3.30;;;;;;;25.04;32.11;99989.78;4235345;28;20290;-69
2022/05/20 09:51:39;;;;;;;8.35;2.72;;;;;;;25.28;32.20;99995.84;4255334;28;20294;-72
2022/05/20 09:54:18;;;;;;;10.13;2.70;;;;;;;25.34;31.61;99985.03;4233924;28;20232;-68
2022/05/20 09:56:47;;;;;;;6.37;2.20;;;;;;;25.36;33.33;99988.31;4240906;28;26736;-69
2022/05/20 09:59:29;;;;;;;13.77;3.03;;;;;;;25.36;32.70;99989.13;4250297;28;20375;-73
2022/05/20 10:02:04;;;;;;;11.65;2.80;;;;;;;25.55;32.79;99983.38;4253136;28;20240;-69
2022/05/20 10:04:41;;;;;;;9.20;2.92;;;;;;;25.57;33.53;99982.03;4225715;28;21763;-70
2022/05/20 10:07:13;;;;;;;11.45;3.15;;;;;;;25.67;33.68;99978.59;4228507;28;21037;-76
2022/05/20 10:09:54;;;;;;;7.10;2.70;;;;;;;25.97;32.93;99975.38;4242522;28;20235;-72
2022/05/20 10:12:27;;;;;;;12.70;3.00;;;;;;;25.94;32.70;99969.63;4255907;28;22077;-69
2022/05/20 10:15:15;;;;;;;9.57;2.80;;;;;;;25.82;33.40;99964.28;4236171;28;20243;-69
2022/05/20 10:18:02;;;;;;;9.45;2.63;;;;;;;25.64;33.96;99958.13;4226886;28;20328;-69
2022/05/20 10:20:58;;;;;;;8.68;2.47;;;;;;;25.58;33.67;99940.06;4226215;28;20787;-67
2022/05/20 10:23:36;;;;;;;14.52;3.03;;;;;;;25.23;35.23;99949.47;4222726;28;21660;-70
2022/05/20 10:27:01;;;;;;;13.07;3.20;;;;;;;25.11;35.35;99951.47;4219858;28;20281;-69
2022/05/20 10:32:34;;;;;;;19.03;3.57;;;;;;;25.65;35.99;99951.59;4266133;28;20234;-70
2022/05/20 10:35:09;;;;;;;13.13;2.50;;;;;;;25.84;35.40;99960.22;4226530;28;20222;-67
2022/05/20 10:37:55;;;;;;;10.40;2.10;;;;;;;25.82;35.31;99956.13;4243957;28;22683;-66
2022/05/20 10:40:46;;;;;;;9.93;2.05;;;;;;;25.91;35.78;99943.69;4248529;28;20345;-70
2022/05/20 10:43:12;;;;;;;11.65;2.10;;;;;;;26.01;35.34;99943.81;4252470;28;20236;-69
2022/05/20 10:49:02;;;;;;;7.82;1.92;;;;;;;26.35;34.63;99950.88;4257298;28;20294;-67
2022/05/20 10:51:49;;;;;;;16.20;2.67;;;;;;;26.44;34.98;99938.41;4249267;28;20285;-69
2022/05/20 10:54:37;;;;;;;16.30;2.50;;;;;;;26.68;35.16;99933.41;4238918;28;25654;-69
2022/05/20 10:57:19;;;;;;;17.65;2.40;;;;;;;26.59;34.98;99926.78;4257136;28;20469;-70
2022/05/20 11:00:05;;;;;;;5.10;2.42;;;;;;;27.00;33.94;99924.28;4231856;28;20291;-69
2022/05/20 11:03:09;;;;;;;11.45;2.72;;;;;;;26.84;34.41;99910.56;4243944;28;21257;-68
2022/05/20 11:05:38;;;;;;;12.88;2.92;;;;;;;26.69;35.15;99915.91;4254987;28;20367;-68
2022/05/20 11:08:17;;;;;;;7.88;2.40;;;;;;;26.59;35.03;99924.88;4230718;28;20238;-68
2022/05/20 11:11:02;;;;;;;9.70;2.95;;;;;;;26.45;35.78;99921.75;4234380;28;25345;-68
2022/05/20 11:13:55;;;;;;;7.57;2.38;;;;;;;26.54;35.26;99908.47;4236457;28;22156;-71
2022/05/20 11:16:35;;;;;;;10.85;2.47;;;;;;;26.64;35.02;99913.97;4240645;28;21209;-70
2022/05/20 11:19:15;;;;;;;13.90;2.30;;;;;;;26.58;34.81;99911.50;4248605;28;20229;-68
2022/05/20 11:22:09;;;;;;;17.85;2.40;;;;;;;26.64;35.99;99916.72;4251536;28;21698;-68
2022/05/20 11:25:02;;;;;;;19.10;2.63;;;;;;;26.65;34.69;99912.09;4245513;28;20226;-71
2022/05/20 11:27:52;;;;;;;16.20;2.28;;;;;;;26.65;34.82;99904.72;4271584;28;20304;-71
2022/05/20 11:30:45;;;;;;;20.48;2.53;;;;;;;26.41;34.40;99917.94;4225744;28;20414;-67
2022/05/20 11:33:41;;;;;;;17.10;1.95;;;;;;;26.57;34.58;99912.59;4232932;28;20606;-69
2022/05/20 11:36:22;;;;;;;15.73;2.58;;;;;;;26.82;34.07;99912.72;4252186;28;21717;-68
2022/05/20 11:39:02;;;;;;;7.28;2.08;;;;;;;26.68;34.61;99897.91;4250414;28;20400;-68
2022/05/20 11:41:56;;;;;;;9.45;2.40;;;;;;;26.94;33.16;99916.06;4233002;28;21587;-71
2022/05/20 11:45:11;;;;;;;14.80;2.30;;;;;;;26.74;33.35;99905.06;4292647;28;20242;-70
2022/05/20 11:47:38;;;;;;;12.88;2.20;;;;;;;27.02;32.19;99905.72;4259909;28;20235;-73
2022/05/20 11:50:19;;;;;;;21.05;2.33;;;;;;;26.95;32.34;99897.78;4256943;28;20484;-70
2022/05/20 11:53:14;;;;;;;10.30;1.90;;;;;;;27.08;32.94;99897.25;4245017;28;20272;-71
2022/05/20 11:55:55;;;;;;;11.50;1.92;;;;;;;27.17;32.94;99892.13;4260030;28;20270;-71
2022/05/20 11:58:41;;;;;;;11.20;2.58;;;;;;;27.23;32.89;99882.88;4267598;28;20284;-70
2022/05/20 12:01:09;;;;;;;14.13;2.05;;;;;;;27.23;33.29;99888.34;4267255;28;20278;-69
2022/05/20 12:06:24;;;;;;;9.73;2.08;;;;;;;27.09;34.10;99876.22;4285310;28;20255;-71
2022/05/20 12:08:55;;;;;;;17.13;2.50;;;;;;;27.28;33.23;99874.69;4242033;28;20234;-73
2022/05/20 12:11:26;;;;;;;12.45;2.40;;;;;;;27.23;32.77;99887.50;4261851;28;20614;-71
2022/05/20 12:13:58;;;;;;;9.50;2.17;;;;;;;27.03;33.36;99880.06;4251526;28;20226;-73
2022/05/20 12:16:24;;;;;;;8.95;1.92;;;;;;;27.11;32.87;99874.06;4253572;28;21395;-72
2022/05/20 12:24:40;;;;;;;14.15;1.70;;;;;;;27.17;32.21;99864.81;4254219;28;20234;-74
2022/05/20 12:27:32;;;;;;;8.23;2.00;;;;;;;26.91;33.08;99870.19;4269908;28;20265;-72
2022/05/20 12:30:17;;;;;;;7.22;2.33;;;;;;;27.14;32.91;99879.81;4262344;28;20230;-71